createdAt,value
2022-10-24T00:03:07.204Z,16.16
2022-10-24T00:08:11.293Z,16.09
2022-10-24T00:13:15.431Z,16.14
2022-10-24T00:18:19.583Z,16.04
2022-10-24T00:23:23.773Z,16.00
2022-10-24T00:28:27.895Z,16.15
2022-10-24T00:33:32.091Z,16.20
2022-10-24T00:38:36.219Z,16.14
2022-10-24T00:43:40.429Z,16.15
2022-10-24T00:48:44.582Z,16.21
2022-10-24T00:53:48.793Z,16.17
2022-10-24T00:58:52.862Z,15.98
2022-10-24T01:03:57.060Z,15.95
2022-10-24T01:09:01.223Z,16.18
2022-10-24T01:14:05.372Z,16.17
2022-10-24T01:19:09.549Z,16.29
2022-10-24T01:24:13.688Z,16.33
2022-10-24T01:29:17.853Z,16.32
2022-10-24T01:34:21.999Z,16.23
2022-10-24T01:39:26.145Z,16.24
2022-10-24T01:44:28.482Z,16.21
2022-10-24T01:49:32.588Z,16.21
2022-10-24T01:54:34.846Z,16.07
2022-10-24T01:59:39.037Z,16.13
2022-10-24T02:04:43.215Z,16.13
2022-10-24T02:09:47.494Z,16.20
2022-10-24T02:14:51.484Z,16.03
2022-10-24T02:19:55.700Z,16.18
2022-10-24T02:24:59.859Z,16.22
2022-10-24T02:30:03.974Z,16.09
2022-10-24T02:35:08.143Z,16.20
2022-10-24T02:40:12.289Z,16.23
2022-10-24T02:45:16.487Z,16.28
2022-10-24T02:50:20.603Z,16.22
2022-10-24T02:55:24.769Z,16.18
2022-10-24T03:00:28.991Z,16.34
2022-10-24T03:05:33.112Z,16.25
2022-10-24T03:10:37.258Z,16.23
2022-10-24T03:15:41.490Z,16.42
2022-10-24T03:20:45.567Z,16.43
2022-10-24T03:25:49.753Z,16.59
2022-10-24T03:30:53.882Z,16.50
2022-10-24T03:35:58.061Z,16.47
2022-10-24T03:41:00.335Z,16.60
2022-10-24T03:46:04.520Z,16.66
2022-10-24T03:51:08.651Z,16.53
2022-10-24T03:56:12.772Z,16.54
2022-10-24T04:01:17.043Z,16.46
2022-10-24T04:06:21.136Z,16.39
2022-10-24T04:11:25.278Z,16.31
2022-10-24T04:16:29.448Z,16.35
2022-10-24T04:21:33.603Z,16.28
2022-10-24T04:26:37.770Z,16.19
2022-10-24T04:31:41.954Z,16.19
2022-10-24T04:36:46.071Z,16.15
2022-10-24T04:41:50.249Z,16.09
2022-10-24T04:46:54.434Z,16.07
2022-10-24T04:51:58.597Z,16.13
2022-10-24T04:57:02.712Z,16.08
2022-10-24T05:02:06.875Z,16.06
2022-10-24T05:07:11.033Z,16.02
2022-10-24T05:12:15.276Z,16.03
2022-10-24T05:17:19.359Z,16.09
2022-10-24T05:22:23.497Z,16.05
2022-10-24T05:27:25.790Z,16.06
2022-10-24T05:32:29.989Z,15.88
2022-10-24T05:37:32.236Z,16.03
2022-10-24T05:42:36.392Z,15.94
2022-10-24T05:47:40.547Z,15.97
2022-10-24T05:52:47.147Z,15.90
2022-10-24T05:57:48.976Z,15.92
2022-10-24T06:02:53.008Z,15.94
2022-10-24T06:07:57.184Z,15.94
2022-10-24T06:13:01.327Z,15.99
2022-10-24T06:18:05.517Z,16.09
2022-10-24T06:23:09.660Z,16.13
2022-10-24T06:28:13.845Z,16.14
2022-10-24T06:33:18.004Z,16.02
2022-10-24T06:38:22.151Z,16.02
2022-10-24T06:43:26.272Z,16.03
2022-10-24T06:48:30.465Z,16.01
2022-10-24T06:53:34.585Z,16.03
2022-10-24T06:58:38.745Z,16.05
2022-10-24T07:03:42.949Z,16.02
2022-10-24T07:08:47.187Z,16.00
2022-10-24T07:13:52.477Z,15.96
2022-10-24T07:18:55.436Z,15.97
2022-10-24T07:34:04.120Z,16.35
2022-10-24T07:39:08.253Z,16.38
2022-10-24T07:44:10.561Z,16.58
2022-10-24T07:49:14.727Z,16.78
2022-10-24T07:54:18.990Z,16.86
2022-10-24T07:59:40.875Z,16.97
2022-10-24T08:04:27.214Z,17.03
2022-10-24T08:14:35.609Z,16.94
2022-10-24T08:19:41.197Z,17.14
2022-10-24T08:24:43.819Z,17.33
2022-10-24T08:29:48.018Z,17.40
2022-10-24T08:34:52.152Z,17.48
2022-10-24T08:39:54.426Z,17.43
2022-10-24T08:44:58.597Z,17.44
2022-10-24T08:50:02.835Z,17.40
2022-10-24T08:55:07.282Z,17.37
2022-10-24T09:00:11.104Z,17.29
2022-10-24T09:05:15.209Z,17.26
2022-10-24T09:10:19.411Z,17.19
2022-10-24T09:15:23.533Z,17.18
2022-10-24T09:20:27.727Z,17.13
2022-10-24T09:25:31.846Z,17.07
2022-10-24T09:30:36.018Z,17.03
2022-10-24T09:35:40.169Z,17.04
2022-10-24T09:40:44.351Z,17.20
2022-10-24T09:45:48.471Z,17.23
2022-10-24T09:50:52.664Z,17.19
2022-10-24T09:55:56.819Z,17.17
2022-10-24T10:01:01.108Z,17.13
2022-10-24T10:06:05.106Z,17.06
2022-10-24T10:11:09.291Z,17.07
2022-10-24T10:16:15.916Z,17.19
2022-10-24T10:21:17.621Z,17.64
2022-10-24T10:26:19.899Z,17.78
2022-10-24T10:31:24.030Z,17.60
2022-10-24T10:36:26.305Z,17.56
2022-10-24T10:41:30.453Z,17.67
2022-10-24T10:46:34.644Z,17.65
2022-10-24T10:51:38.781Z,17.68
2022-10-24T10:56:42.942Z,17.63
2022-10-24T11:01:47.323Z,17.63
2022-10-24T11:06:51.326Z,17.49
2022-10-24T11:11:55.478Z,17.46
2022-10-24T11:16:59.572Z,17.38
2022-10-24T11:22:03.794Z,17.49
2022-10-24T11:27:07.920Z,17.54
2022-10-24T11:32:12.064Z,17.47
2022-10-24T11:37:16.189Z,17.49
2022-10-24T11:42:20.486Z,17.52
2022-10-24T11:47:24.530Z,17.47
2022-10-24T11:52:28.699Z,17.46
2022-10-24T11:57:32.859Z,17.36
2022-10-24T12:02:37.059Z,17.29
2022-10-24T12:07:41.193Z,17.20
2022-10-24T12:12:45.347Z,17.16
2022-10-24T12:17:49.487Z,17.19
2022-10-24T12:22:51.805Z,17.13
2022-10-24T12:27:55.932Z,17.14
2022-10-24T12:33:00.318Z,17.14
2022-10-24T12:38:04.205Z,17.11
2022-10-24T12:43:08.443Z,17.06
2022-10-24T12:48:12.570Z,17.09
2022-10-24T12:53:16.709Z,17.17
2022-10-24T12:58:20.855Z,17.28
2022-10-24T13:03:25.027Z,17.64
2022-10-24T13:13:33.337Z,17.57
2022-10-24T13:18:37.509Z,17.59
2022-10-24T13:23:41.678Z,17.79
2022-10-24T13:28:45.851Z,17.86
2022-10-24T13:33:49.999Z,17.91
2022-10-24T13:38:54.170Z,17.85
2022-10-24T13:43:58.324Z,17.97
2022-10-24T13:49:02.494Z,18.18
2022-10-24T13:54:06.609Z,18.14
2022-10-24T13:59:10.801Z,18.31
2022-10-24T14:04:14.926Z,18.45
2022-10-24T14:09:19.123Z,18.84
2022-10-24T14:14:21.383Z,19.00
2022-10-24T14:19:28.489Z,18.88
2022-10-24T14:24:27.813Z,18.73
2022-10-24T14:29:31.972Z,18.69
2022-10-24T14:34:36.496Z,18.34
2022-10-24T14:39:40.326Z,18.55
2022-10-24T14:44:44.439Z,18.48
2022-10-24T14:49:48.603Z,18.21
2022-10-24T14:54:52.720Z,17.94
2022-10-24T14:59:56.923Z,17.73
2022-10-24T15:05:01.048Z,17.67
2022-10-24T15:10:07.908Z,17.63
2022-10-24T15:15:09.389Z,17.60
2022-10-24T15:20:13.554Z,17.56
2022-10-24T15:25:17.727Z,17.55
2022-10-24T15:30:21.870Z,17.37
2022-10-24T15:35:26.036Z,17.27
2022-10-24T15:40:30.190Z,17.15
2022-10-24T15:45:34.361Z,17.09
2022-10-24T15:50:38.517Z,17.03
2022-10-24T15:55:42.687Z,17.03
2022-10-24T16:00:46.870Z,16.98
2022-10-24T16:05:50.944Z,16.90
2022-10-24T16:10:53.273Z,16.52
2022-10-24T16:15:57.398Z,16.28
2022-10-24T16:20:59.797Z,16.11
2022-10-24T16:26:03.860Z,16.03
2022-10-24T16:31:08.001Z,15.87
2022-10-24T16:36:12.142Z,15.81
2022-10-24T16:41:16.287Z,15.71
2022-10-24T16:46:20.469Z,15.46
2022-10-24T16:51:24.638Z,15.28
2022-10-24T16:56:28.775Z,15.05
2022-10-24T17:01:33.097Z,14.93
2022-10-24T17:06:37.140Z,14.78
2022-10-24T17:11:46.001Z,14.67
2022-10-24T17:16:45.431Z,14.53
2022-10-24T17:21:49.569Z,14.52
2022-10-24T17:26:53.747Z,14.49
2022-10-24T17:31:57.910Z,14.44
2022-10-24T17:37:02.064Z,14.45
2022-10-24T17:42:06.259Z,14.48
2022-10-24T17:47:10.402Z,14.68
2022-10-24T17:52:14.616Z,14.83
2022-10-24T17:57:18.700Z,14.79
2022-10-24T18:02:22.921Z,14.56
2022-10-24T18:07:25.141Z,14.23
2022-10-24T18:12:29.317Z,13.96
2022-10-24T18:17:33.453Z,13.74
2022-10-24T18:22:35.742Z,13.64
2022-10-24T18:27:39.940Z,13.48
2022-10-24T18:32:44.576Z,13.38
2022-10-24T18:37:48.264Z,13.30
2022-10-24T18:42:52.401Z,13.18
2022-10-24T18:47:56.565Z,13.19
2022-10-24T18:53:00.745Z,13.14
2022-10-24T18:58:04.851Z,13.10
2022-10-24T19:03:09.009Z,13.07
2022-10-24T19:08:13.178Z,13.10
2022-10-24T19:13:17.388Z,13.09
2022-10-24T19:18:21.493Z,13.06
2022-10-24T19:23:25.685Z,13.00
2022-10-24T19:28:29.854Z,12.92
2022-10-24T19:33:33.999Z,12.88
2022-10-24T19:38:38.154Z,12.89
2022-10-24T19:43:42.306Z,12.83
2022-10-24T19:48:46.484Z,12.72
2022-10-24T19:53:50.641Z,12.67
2022-10-24T19:58:54.800Z,12.64
2022-10-24T20:03:58.947Z,12.55
2022-10-24T20:09:01.208Z,12.48
2022-10-24T20:14:05.373Z,12.59
2022-10-24T20:19:09.541Z,12.66
2022-10-24T20:24:13.690Z,12.81
2022-10-24T20:29:17.892Z,13.06
2022-10-24T20:34:22.012Z,13.26
2022-10-24T20:39:26.171Z,13.62
2022-10-24T20:44:30.330Z,13.70
2022-10-24T20:49:34.500Z,13.73
2022-10-24T20:54:38.668Z,13.73
2022-10-24T20:59:42.983Z,13.69
2022-10-24T21:04:46.982Z,13.68
2022-10-24T21:09:51.113Z,13.67
2022-10-24T21:14:55.712Z,13.64
2022-10-24T21:19:59.436Z,13.60
2022-10-24T21:25:03.679Z,13.57
2022-10-24T21:30:10.978Z,13.54
2022-10-24T21:35:11.968Z,13.47
2022-10-24T21:40:16.090Z,13.44
2022-10-24T21:45:20.243Z,13.42
2022-10-24T21:50:24.418Z,13.36
2022-10-24T21:55:26.693Z,13.31
2022-10-24T22:00:30.893Z,13.31
2022-10-24T22:05:33.133Z,13.26
2022-10-24T22:10:37.277Z,13.22
2022-10-24T22:15:39.596Z,13.19
2022-10-24T22:20:43.708Z,13.17
2022-10-24T22:25:47.872Z,13.18
2022-10-24T22:30:52.063Z,13.17
2022-10-24T22:35:56.237Z,13.22
2022-10-24T22:41:00.355Z,13.31
2022-10-24T22:46:04.527Z,13.37
2022-10-24T22:51:08.706Z,13.47
2022-10-24T22:56:12.843Z,13.53
2022-10-24T23:01:17.223Z,13.58
2022-10-24T23:06:21.310Z,13.68
2022-10-24T23:11:25.291Z,13.75
2022-10-24T23:16:29.525Z,13.81
2022-10-24T23:21:33.667Z,13.87
2022-10-24T23:26:37.820Z,13.86
2022-10-24T23:31:41.987Z,13.86
2022-10-24T23:36:46.114Z,13.96
2022-10-24T23:41:50.301Z,13.98
2022-10-24T23:46:54.455Z,14.03
2022-10-24T23:51:58.582Z,14.15
2022-10-24T23:57:02.761Z,14.24
